sensor_id;sensor_type;location;lat;lon;timestamp;pressure;altitude;pressure_sealevel;temperature;humidity
56604;BME280;42486;47.478;19.036;2022-08-20T00:02:07;99647.66;;;20.17;100.00
56604;BME280;42486;47.478;19.036;2022-08-20T00:05:10;99644.84;;;20.26;100.00
56604;BME280;42486;47.478;19.036;2022-08-20T00:08:12;99649.91;;;20.20;100.00
56604;BME280;42486;47.478;19.036;2022-08-20T00:11:17;99659.16;;;20.24;100.00
56604;BME280;42486;47.478;19.036;2022-08-20T00:14:19;99661.81;;;20.31;100.00
56604;BME280;42486;47.478;19.036;2022-08-20T00:17:21;99674.66;;;20.28;100.00
56604;BME280;42486;47.478;19.036;2022-08-20T00:20:25;99676.91;;;20.24;100.00
56604;BME280;42486;47.478;19.036;2022-08-20T00:23:27;99688.75;;;20.28;100.00
56604;BME280;42486;47.478;19.036;2022-08-20T00:26:29;99690.09;;;20.17;100.00
56604;BME280;42486;47.478;19.036;2022-08-20T00:29:31;99682.69;;;20.13;100.00
56604;BME280;42486;47.478;19.036;2022-08-20T00:32:47;99692.50;;;20.12;100.00
56604;BME280;42486;47.478;19.036;2022-08-20T00:35:52;99685.56;;;20.11;100.00
56604;BME280;42486;47.478;19.036;2022-08-20T00:38:54;99684.16;;;20.15;100.00
56604;BME280;42486;47.478;19.036;2022-08-20T00:41:56;99677.75;;;20.03;100.00
56604;BME280;42486;47.478;19.036;2022-08-20T00:44:59;99685.62;;;19.96;100.00
56604;BME280;42486;47.478;19.036;2022-08-20T00:48:06;99679.50;;;19.96;100.00
56604;BME280;42486;47.478;19.036;2022-08-20T00:54:17;99691.81;;;20.04;100.00
56604;BME280;42486;47.478;19.036;2022-08-20T00:57:34;99687.16;;;20.06;100.00
56604;BME280;42486;47.478;19.036;2022-08-20T01:01:00;99679.00;;;20.07;100.00
56604;BME280;42486;47.478;19.036;2022-08-20T01:04:02;99666.22;;;20.17;100.00
56604;BME280;42486;47.478;19.036;2022-08-20T01:07:06;99654.16;;;20.15;100.00
56604;BME280;42486;47.478;19.036;2022-08-20T01:10:13;99643.16;;;20.18;100.00
56604;BME280;42486;47.478;19.036;2022-08-20T01:13:21;99629.81;;;20.05;100.00
56604;BME280;42486;47.478;19.036;2022-08-20T01:16:26;99617.88;;;19.94;100.00
56604;BME280;42486;47.478;19.036;2022-08-20T01:19:34;99597.63;;;19.86;100.00
56604;BME280;42486;47.478;19.036;2022-08-20T01:26:26;99588.06;;;19.85;100.00
56604;BME280;42486;47.478;19.036;2022-08-20T01:29:36;99591.47;;;19.79;100.00
56604;BME280;42486;47.478;19.036;2022-08-20T01:32:40;99589.75;;;19.93;100.00
56604;BME280;42486;47.478;19.036;2022-08-20T01:35:43;99599.63;;;20.06;100.00
56604;BME280;42486;47.478;19.036;2022-08-20T01:38:46;99597.22;;;20.11;100.00
56604;BME280;42486;47.478;19.036;2022-08-20T01:45:12;99591.28;;;20.09;100.00
56604;BME280;42486;47.478;19.036;2022-08-20T01:48:19;99600.25;;;20.08;100.00
56604;BME280;42486;47.478;19.036;2022-08-20T01:51:24;99589.78;;;19.99;100.00
56604;BME280;42486;47.478;19.036;2022-08-20T01:54:27;99591.66;;;19.77;100.00
56604;BME280;42486;47.478;19.036;2022-08-20T01:57:30;99598.72;;;19.70;100.00
56604;BME280;42486;47.478;19.036;2022-08-20T02:00:33;99604.66;;;19.72;100.00
56604;BME280;42486;47.478;19.036;2022-08-20T02:03:40;99606.53;;;19.78;100.00
56604;BME280;42486;47.478;19.036;2022-08-20T02:06:51;99602.81;;;19.73;100.00
56604;BME280;42486;47.478;19.036;2022-08-20T02:09:58;99594.44;;;19.69;100.00
56604;BME280;42486;47.478;19.036;2022-08-20T02:13:02;99600.16;;;19.73;100.00
56604;BME280;42486;47.478;19.036;2022-08-20T02:16:15;99606.25;;;19.67;100.00
56604;BME280;42486;47.478;19.036;2022-08-20T02:19:22;99613.47;;;19.58;100.00
56604;BME280;42486;47.478;19.036;2022-08-20T02:25:39;99617.59;;;19.61;100.00
56604;BME280;42486;47.478;19.036;2022-08-20T02:28:50;99612.97;;;19.48;100.00
56604;BME280;42486;47.478;19.036;2022-08-20T02:31:54;99610.06;;;19.43;100.00
56604;BME280;42486;47.478;19.036;2022-08-20T02:35:16;99604.91;;;19.34;100.00
56604;BME280;42486;47.478;19.036;2022-08-20T02:38:19;99612.84;;;19.34;100.00
56604;BME280;42486;47.478;19.036;2022-08-20T02:41:22;99623.88;;;19.38;100.00
56604;BME280;42486;47.478;19.036;2022-08-20T02:44:24;99627.28;;;19.53;100.00
56604;BME280;42486;47.478;19.036;2022-08-20T02:47:27;99637.06;;;19.53;100.00
56604;BME280;42486;47.478;19.036;2022-08-20T02:50:30;99644.38;;;19.51;100.00
56604;BME280;42486;47.478;19.036;2022-08-20T02:53:34;99645.16;;;19.45;100.00
56604;BME280;42486;47.478;19.036;2022-08-20T02:56:40;99636.13;;;19.39;100.00
56604;BME280;42486;47.478;19.036;2022-08-20T02:59:45;99635.41;;;19.52;100.00
56604;BME280;42486;47.478;19.036;2022-08-20T03:02:49;99642.25;;;19.61;100.00
56604;BME280;42486;47.478;19.036;2022-08-20T03:05:57;99653.34;;;19.50;100.00
56604;BME280;42486;47.478;19.036;2022-08-20T03:09:03;99664.25;;;19.62;100.00
56604;BME280;42486;47.478;19.036;2022-08-20T03:12:18;99682.81;;;19.62;100.00
56604;BME280;42486;47.478;19.036;2022-08-20T03:15:30;99695.16;;;19.69;100.00
56604;BME280;42486;47.478;19.036;2022-08-20T03:18:38;99689.94;;;19.61;100.00
56604;BME280;42486;47.478;19.036;2022-08-20T03:21:52;99686.72;;;19.44;100.00
56604;BME280;42486;47.478;19.036;2022-08-20T03:24:58;99693.22;;;19.42;100.00
56604;BME280;42486;47.478;19.036;2022-08-20T03:28:01;99730.81;;;19.52;100.00
56604;BME280;42486;47.478;19.036;2022-08-20T03:31:05;99719.09;;;19.61;100.00
56604;BME280;42486;47.478;19.036;2022-08-20T03:34:16;99719.59;;;19.50;100.00
56604;BME280;42486;47.478;19.036;2022-08-20T03:37:23;99721.31;;;19.57;100.00
56604;BME280;42486;47.478;19.036;2022-08-20T03:40:28;99715.38;;;19.55;100.00
56604;BME280;42486;47.478;19.036;2022-08-20T03:43:38;99707.31;;;19.64;100.00
56604;BME280;42486;47.478;19.036;2022-08-20T03:46:47;99723.12;;;19.72;100.00
56604;BME280;42486;47.478;19.036;2022-08-20T03:49:59;99721.94;;;19.59;100.00
56604;BME280;42486;47.478;19.036;2022-08-20T03:57:17;99728.69;;;19.62;100.00
56604;BME280;42486;47.478;19.036;2022-08-20T04:00:24;99721.38;;;19.64;100.00
56604;BME280;42486;47.478;19.036;2022-08-20T04:03:30;99699.00;;;19.67;100.00
56604;BME280;42486;47.478;19.036;2022-08-20T04:06:45;99699.75;;;19.61;100.00
56604;BME280;42486;47.478;19.036;2022-08-20T04:10:09;99715.62;;;19.61;100.00
56604;BME280;42486;47.478;19.036;2022-08-20T04:13:48;99725.66;;;19.65;100.00
56604;BME280;42486;47.478;19.036;2022-08-20T04:16:56;99720.03;;;19.68;100.00
56604;BME280;42486;47.478;19.036;2022-08-20T04:20:21;99712.78;;;19.62;100.00
56604;BME280;42486;47.478;19.036;2022-08-20T04:23:27;99703.50;;;19.66;100.00
56604;BME280;42486;47.478;19.036;2022-08-20T04:26:34;99665.19;;;19.54;100.00
56604;BME280;42486;47.478;19.036;2022-08-20T04:33:55;99656.03;;;19.71;100.00
56604;BME280;42486;47.478;19.036;2022-08-20T05:04:09;99681.03;;;20.33;100.00
56604;BME280;42486;47.478;19.036;2022-08-20T05:25:05;99704.31;;;20.94;100.00
56604;BME280;42486;47.478;19.036;2022-08-20T05:28:20;99699.00;;;20.94;100.00
56604;BME280;42486;47.478;19.036;2022-08-20T05:31:30;99691.50;;;21.04;100.00
56604;BME280;42486;47.478;19.036;2022-08-20T05:35:20;99692.09;;;21.00;100.00
56604;BME280;42486;47.478;19.036;2022-08-20T05:38:45;99683.72;;;21.03;100.00
56604;BME280;42486;47.478;19.036;2022-08-20T05:42:17;99683.00;;;21.29;100.00
56604;BME280;42486;47.478;19.036;2022-08-20T05:45:23;99692.00;;;21.28;100.00
56604;BME280;42486;47.478;19.036;2022-08-20T05:48:28;99698.16;;;21.28;100.00
56604;BME280;42486;47.478;19.036;2022-08-20T05:52:04;99704.34;;;21.42;100.00
56604;BME280;42486;47.478;19.036;2022-08-20T05:55:19;99696.41;;;21.49;98.88
56604;BME280;42486;47.478;19.036;2022-08-20T05:58:23;99690.47;;;21.47;97.30
56604;BME280;42486;47.478;19.036;2022-08-20T06:01:29;99694.78;;;21.54;96.79
56604;BME280;42486;47.478;19.036;2022-08-20T06:04:45;99691.50;;;21.59;99.78
56604;BME280;42486;47.478;19.036;2022-08-20T06:07:58;99687.66;;;21.68;96.43
56604;BME280;42486;47.478;19.036;2022-08-20T06:18:36;99683.44;;;22.27;92.98
56604;BME280;42486;47.478;19.036;2022-08-20T06:21:47;99684.62;;;22.51;93.95
56604;BME280;42486;47.478;19.036;2022-08-20T06:24:51;99694.22;;;22.65;87.75
56604;BME280;42486;47.478;19.036;2022-08-20T06:27:55;99706.47;;;22.86;87.76
56604;BME280;42486;47.478;19.036;2022-08-20T06:31:07;99704.44;;;22.82;83.43
56604;BME280;42486;47.478;19.036;2022-08-20T06:34:14;99704.47;;;22.69;82.94
56604;BME280;42486;47.478;19.036;2022-08-20T06:37:19;99717.34;;;22.85;84.58
56604;BME280;42486;47.478;19.036;2022-08-20T06:40:23;99727.16;;;22.98;83.64
56604;BME280;42486;47.478;19.036;2022-08-20T06:43:26;99726.13;;;23.05;83.70
56604;BME280;42486;47.478;19.036;2022-08-20T06:46:36;99726.13;;;23.05;89.69
56604;BME280;42486;47.478;19.036;2022-08-20T06:49:39;99739.44;;;23.05;91.70
56604;BME280;42486;47.478;19.036;2022-08-20T06:52:43;99729.56;;;23.19;92.55
56604;BME280;42486;47.478;19.036;2022-08-20T06:55:54;99744.56;;;23.07;93.54
56604;BME280;42486;47.478;19.036;2022-08-20T06:59:01;99752.13;;;23.17;93.74
56604;BME280;42486;47.478;19.036;2022-08-20T07:02:04;99753.59;;;23.64;92.10
56604;BME280;42486;47.478;19.036;2022-08-20T07:05:07;99756.34;;;23.89;88.19
56604;BME280;42486;47.478;19.036;2022-08-20T07:08:10;99776.34;;;24.05;88.46
56604;BME280;42486;47.478;19.036;2022-08-20T07:11:14;99775.13;;;24.01;85.09
56604;BME280;42486;47.478;19.036;2022-08-20T07:14:18;99785.31;;;23.86;86.56
56604;BME280;42486;47.478;19.036;2022-08-20T07:17:20;99779.41;;;23.70;85.85
56604;BME280;42486;47.478;19.036;2022-08-20T07:20:25;99778.41;;;23.65;85.19
56604;BME280;42486;47.478;19.036;2022-08-20T07:23:28;99767.56;;;23.53;88.47
56604;BME280;42486;47.478;19.036;2022-08-20T07:26:34;99773.37;;;23.37;89.56
56604;BME280;42486;47.478;19.036;2022-08-20T07:29:37;99786.75;;;23.23;93.68
56604;BME280;42486;47.478;19.036;2022-08-20T07:32:59;99782.25;;;23.17;90.69
56604;BME280;42486;47.478;19.036;2022-08-20T07:36:02;99787.75;;;23.29;87.93
56604;BME280;42486;47.478;19.036;2022-08-20T07:39:05;99801.16;;;23.02;83.61
56604;BME280;42486;47.478;19.036;2022-08-20T07:42:11;99808.88;;;23.24;78.09
56604;BME280;42486;47.478;19.036;2022-08-20T07:45:16;99802.59;;;22.85;87.45
56604;BME280;42486;47.478;19.036;2022-08-20T07:48:20;99818.84;;;21.95;92.93
56604;BME280;42486;47.478;19.036;2022-08-20T07:51:32;99857.75;;;21.27;100.00
56604;BME280;42486;47.478;19.036;2022-08-20T07:54:34;99877.47;;;20.40;100.00
56604;BME280;42486;47.478;19.036;2022-08-20T07:57:38;99901.75;;;20.22;100.00
56604;BME280;42486;47.478;19.036;2022-08-20T08:00:40;99944.12;;;20.00;100.00
56604;BME280;42486;47.478;19.036;2022-08-20T08:03:43;99940.13;;;19.90;100.00
56604;BME280;42486;47.478;19.036;2022-08-20T08:06:51;99921.56;;;19.75;100.00
56604;BME280;42486;47.478;19.036;2022-08-20T08:09:53;99906.91;;;19.64;100.00
56604;BME280;42486;47.478;19.036;2022-08-20T08:12:58;99900.31;;;19.45;100.00
56604;BME280;42486;47.478;19.036;2022-08-20T08:16:00;99904.19;;;19.20;100.00
56604;BME280;42486;47.478;19.036;2022-08-20T08:19:03;99919.94;;;18.98;100.00
56604;BME280;42486;47.478;19.036;2022-08-20T08:22:08;99946.25;;;18.77;100.00
56604;BME280;42486;47.478;19.036;2022-08-20T08:25:14;99950.44;;;18.94;100.00
56604;BME280;42486;47.478;19.036;2022-08-20T08:28:18;99953.47;;;19.06;100.00
56604;BME280;42486;47.478;19.036;2022-08-20T08:31:20;99953.84;;;18.80;100.00
56604;BME280;42486;47.478;19.036;2022-08-20T08:34:22;99935.97;;;18.82;100.00
56604;BME280;42486;47.478;19.036;2022-08-20T08:37:27;99918.91;;;18.84;100.00
56604;BME280;42486;47.478;19.036;2022-08-20T08:40:31;99912.53;;;18.70;100.00
56604;BME280;42486;47.478;19.036;2022-08-20T08:43:34;99908.13;;;18.63;100.00
56604;BME280;42486;47.478;19.036;2022-08-20T08:46:43;99897.19;;;18.66;100.00
56604;BME280;42486;47.478;19.036;2022-08-20T08:49:46;99889.53;;;18.71;100.00
56604;BME280;42486;47.478;19.036;2022-08-20T08:52:49;99899.66;;;18.67;100.00
56604;BME280;42486;47.478;19.036;2022-08-20T08:55:53;99889.94;;;18.60;100.00
56604;BME280;42486;47.478;19.036;2022-08-20T08:58:57;99864.47;;;18.59;100.00
56604;BME280;42486;47.478;19.036;2022-08-20T09:02:01;99855.13;;;18.71;100.00
56604;BME280;42486;47.478;19.036;2022-08-20T09:05:11;99857.28;;;18.90;100.00
56604;BME280;42486;47.478;19.036;2022-08-20T09:08:15;99851.78;;;18.77;100.00
56604;BME280;42486;47.478;19.036;2022-08-20T09:11:18;99871.25;;;18.84;100.00
56604;BME280;42486;47.478;19.036;2022-08-20T09:14:21;99896.41;;;19.03;100.00
56604;BME280;42486;47.478;19.036;2022-08-20T09:17:25;99919.72;;;19.08;100.00
56604;BME280;42486;47.478;19.036;2022-08-20T09:20:27;99942.66;;;18.92;100.00
56604;BME280;42486;47.478;19.036;2022-08-20T09:23:29;99943.94;;;18.74;100.00
56604;BME280;42486;47.478;19.036;2022-08-20T09:26:31;99958.97;;;18.81;100.00
56604;BME280;42486;47.478;19.036;2022-08-20T09:29:40;99963.78;;;19.01;100.00
56604;BME280;42486;47.478;19.036;2022-08-20T09:32:57;99953.03;;;18.79;100.00
56604;BME280;42486;47.478;19.036;2022-08-20T09:36:01;99945.59;;;18.75;100.00
56604;BME280;42486;47.478;19.036;2022-08-20T09:39:23;99945.47;;;18.68;100.00
56604;BME280;42486;47.478;19.036;2022-08-20T09:42:32;99923.84;;;18.64;100.00
56604;BME280;42486;47.478;19.036;2022-08-20T09:45:41;99915.91;;;18.64;100.00
56604;BME280;42486;47.478;19.036;2022-08-20T09:48:43;99898.72;;;18.60;100.00
56604;BME280;42486;47.478;19.036;2022-08-20T09:51:45;99892.25;;;18.63;100.00
56604;BME280;42486;47.478;19.036;2022-08-20T09:54:47;99877.91;;;18.57;100.00
56604;BME280;42486;47.478;19.036;2022-08-20T09:57:50;99860.72;;;18.53;100.00
56604;BME280;42486;47.478;19.036;2022-08-20T10:00:55;99838.28;;;18.49;100.00
56604;BME280;42486;47.478;19.036;2022-08-20T10:03:57;99815.12;;;18.51;100.00
56604;BME280;42486;47.478;19.036;2022-08-20T10:07:23;99803.53;;;18.52;100.00
56604;BME280;42486;47.478;19.036;2022-08-20T10:10:28;99794.22;;;18.56;100.00
56604;BME280;42486;47.478;19.036;2022-08-20T10:13:39;99775.00;;;18.62;100.00
56604;BME280;42486;47.478;19.036;2022-08-20T10:16:46;99738.19;;;18.76;100.00
56604;BME280;42486;47.478;19.036;2022-08-20T10:20:01;99693.16;;;18.90;100.00
56604;BME280;42486;47.478;19.036;2022-08-20T10:23:06;99689.44;;;19.00;100.00
56604;BME280;42486;47.478;19.036;2022-08-20T10:26:12;99707.66;;;19.39;100.00
56604;BME280;42486;47.478;19.036;2022-08-20T10:29:22;99715.97;;;19.72;100.00
56604;BME280;42486;47.478;19.036;2022-08-20T10:32:24;99738.28;;;19.99;100.00
56604;BME280;42486;47.478;19.036;2022-08-20T10:35:27;99752.16;;;20.23;100.00
56604;BME280;42486;47.478;19.036;2022-08-20T10:38:31;99778.06;;;20.21;100.00
56604;BME280;42486;47.478;19.036;2022-08-20T10:41:33;99791.84;;;20.10;100.00
56604;BME280;42486;47.478;19.036;2022-08-20T10:44:39;99802.56;;;20.01;100.00
56604;BME280;42486;47.478;19.036;2022-08-20T10:47:57;99816.03;;;20.21;100.00
56604;BME280;42486;47.478;19.036;2022-08-20T10:50:59;99822.41;;;20.06;100.00
56604;BME280;42486;47.478;19.036;2022-08-20T10:54:02;99847.25;;;20.41;100.00
56604;BME280;42486;47.478;19.036;2022-08-20T10:57:14;99854.94;;;20.36;100.00
56604;BME280;42486;47.478;19.036;2022-08-20T11:00:17;99849.34;;;20.24;100.00
56604;BME280;42486;47.478;19.036;2022-08-20T11:03:20;99857.31;;;20.45;100.00
56604;BME280;42486;47.478;19.036;2022-08-20T11:06:27;99865.31;;;20.52;100.00
56604;BME280;42486;47.478;19.036;2022-08-20T11:09:29;99868.47;;;20.41;100.00
56604;BME280;42486;47.478;19.036;2022-08-20T11:12:32;99869.56;;;20.68;100.00
56604;BME280;42486;47.478;19.036;2022-08-20T11:15:35;99876.03;;;20.80;100.00
56604;BME280;42486;47.478;19.036;2022-08-20T11:18:38;99889.28;;;21.02;100.00
56604;BME280;42486;47.478;19.036;2022-08-20T11:21:49;99891.63;;;21.18;100.00
56604;BME280;42486;47.478;19.036;2022-08-20T11:24:51;99896.72;;;21.13;100.00
56604;BME280;42486;47.478;19.036;2022-08-20T11:27:54;99879.41;;;21.24;100.00
56604;BME280;42486;47.478;19.036;2022-08-20T11:30:57;99883.56;;;21.33;100.00
56604;BME280;42486;47.478;19.036;2022-08-20T11:33:59;99880.31;;;21.66;100.00
56604;BME280;42486;47.478;19.036;2022-08-20T11:37:02;99873.91;;;21.53;100.00
56604;BME280;42486;47.478;19.036;2022-08-20T11:40:04;99866.81;;;21.67;100.00
56604;BME280;42486;47.478;19.036;2022-08-20T11:43:14;99855.53;;;21.59;100.00
56604;BME280;42486;47.478;19.036;2022-08-20T11:46:19;99866.44;;;21.77;100.00
56604;BME280;42486;47.478;19.036;2022-08-20T11:49:27;99858.81;;;21.61;100.00
56604;BME280;42486;47.478;19.036;2022-08-20T11:52:29;99852.44;;;21.55;100.00
56604;BME280;42486;47.478;19.036;2022-08-20T11:55:31;99855.53;;;21.59;100.00
56604;BME280;42486;47.478;19.036;2022-08-20T11:58:37;99851.81;;;21.53;100.00
56604;BME280;42486;47.478;19.036;2022-08-20T12:01:40;99846.47;;;21.18;100.00
56604;BME280;42486;47.478;19.036;2022-08-20T12:05:11;99843.47;;;21.28;100.00
56604;BME280;42486;47.478;19.036;2022-08-20T12:08:18;99835.22;;;21.51;100.00
56604;BME280;42486;47.478;19.036;2022-08-20T12:11:31;99831.69;;;21.79;100.00
56604;BME280;42486;47.478;19.036;2022-08-20T12:14:38;99835.78;;;21.81;100.00
56604;BME280;42486;47.478;19.036;2022-08-20T12:17:46;99823.72;;;21.79;100.00
56604;BME280;42486;47.478;19.036;2022-08-20T12:20:48;99816.13;;;21.75;100.00
56604;BME280;42486;47.478;19.036;2022-08-20T12:23:56;99808.44;;;22.07;100.00
56604;BME280;42486;47.478;19.036;2022-08-20T12:27:16;99797.00;;;22.13;100.00
56604;BME280;42486;47.478;19.036;2022-08-20T12:30:21;99798.19;;;22.04;100.00
56604;BME280;42486;47.478;19.036;2022-08-20T12:33:24;99788.88;;;22.35;100.00
56604;BME280;42486;47.478;19.036;2022-08-20T12:36:28;99780.19;;;21.99;100.00
56604;BME280;42486;47.478;19.036;2022-08-20T12:39:31;99772.84;;;22.08;100.00
56604;BME280;42486;47.478;19.036;2022-08-20T12:42:35;99774.13;;;22.19;100.00
56604;BME280;42486;47.478;19.036;2022-08-20T12:45:38;99760.81;;;22.32;100.00
56604;BME280;42486;47.478;19.036;2022-08-20T12:48:41;99756.31;;;22.33;100.00
56604;BME280;42486;47.478;19.036;2022-08-20T12:51:44;99753.84;;;22.25;100.00
56604;BME280;42486;47.478;19.036;2022-08-20T12:54:48;99746.69;;;22.38;100.00
56604;BME280;42486;47.478;19.036;2022-08-20T12:57:53;99740.94;;;22.55;100.00
56604;BME280;42486;47.478;19.036;2022-08-20T13:00:57;99736.84;;;22.52;100.00
56604;BME280;42486;47.478;19.036;2022-08-20T13:04:10;99736.81;;;22.65;100.00
56604;BME280;42486;47.478;19.036;2022-08-20T13:07:21;99731.12;;;22.69;99.05
56604;BME280;42486;47.478;19.036;2022-08-20T13:10:29;99731.53;;;22.59;97.99
56604;BME280;42486;47.478;19.036;2022-08-20T13:13:37;99738.28;;;22.48;95.84
56604;BME280;42486;47.478;19.036;2022-08-20T13:16:40;99733.38;;;22.38;92.19
56604;BME280;42486;47.478;19.036;2022-08-20T13:19:43;99733.16;;;22.33;93.76
56604;BME280;42486;47.478;19.036;2022-08-20T13:22:46;99736.63;;;22.34;97.14
56604;BME280;42486;47.478;19.036;2022-08-20T13:25:50;99733.16;;;22.53;94.26
56604;BME280;42486;47.478;19.036;2022-08-20T13:28:53;99740.13;;;22.61;95.06
56604;BME280;42486;47.478;19.036;2022-08-20T13:31:56;99734.75;;;22.81;93.84
56604;BME280;42486;47.478;19.036;2022-08-20T13:34:59;99727.97;;;22.92;89.97
56604;BME280;42486;47.478;19.036;2022-08-20T13:38:01;99733.09;;;23.00;89.40
56604;BME280;42486;47.478;19.036;2022-08-20T13:41:04;99724.50;;;22.98;90.67
56604;BME280;42486;47.478;19.036;2022-08-20T13:44:06;99728.16;;;23.10;93.10
56604;BME280;42486;47.478;19.036;2022-08-20T13:47:13;99740.06;;;23.07;93.50
56604;BME280;42486;47.478;19.036;2022-08-20T13:50:16;99742.72;;;23.14;89.63
56604;BME280;42486;47.478;19.036;2022-08-20T13:53:20;99742.69;;;23.21;91.83
56604;BME280;42486;47.478;19.036;2022-08-20T13:56:25;99752.69;;;23.32;91.21
56604;BME280;42486;47.478;19.036;2022-08-20T13:59:28;99768.09;;;23.30;92.15
56604;BME280;42486;47.478;19.036;2022-08-20T14:02:31;99770.78;;;23.17;92.35
56604;BME280;42486;47.478;19.036;2022-08-20T14:05:34;99768.97;;;23.04;88.35
56604;BME280;42486;47.478;19.036;2022-08-20T14:08:37;99782.47;;;23.16;90.87
56604;BME280;42486;47.478;19.036;2022-08-20T14:11:40;99777.12;;;23.16;87.42
56604;BME280;42486;47.478;19.036;2022-08-20T14:14:42;99760.38;;;23.02;85.56
56604;BME280;42486;47.478;19.036;2022-08-20T14:17:50;99740.28;;;22.86;85.68
56604;BME280;42486;47.478;19.036;2022-08-20T14:20:53;99742.56;;;22.76;89.07
56604;BME280;42486;47.478;19.036;2022-08-20T14:23:59;99734.34;;;22.97;88.40
56604;BME280;42486;47.478;19.036;2022-08-20T14:27:03;99739.81;;;23.16;87.67
56604;BME280;42486;47.478;19.036;2022-08-20T14:30:08;99721.16;;;23.16;82.05
56604;BME280;42486;47.478;19.036;2022-08-20T14:33:23;99727.50;;;23.21;81.29
56604;BME280;42486;47.478;19.036;2022-08-20T14:36:26;99733.25;;;23.25;83.27
56604;BME280;42486;47.478;19.036;2022-08-20T14:39:30;99732.63;;;23.16;82.31
56604;BME280;42486;47.478;19.036;2022-08-20T14:42:34;99733.28;;;23.05;81.49
56604;BME280;42486;47.478;19.036;2022-08-20T14:45:37;99732.09;;;23.01;83.54
56604;BME280;42486;47.478;19.036;2022-08-20T14:48:42;99740.28;;;22.99;83.64
56604;BME280;42486;47.478;19.036;2022-08-20T14:51:44;99734.34;;;22.97;83.15
56604;BME280;42486;47.478;19.036;2022-08-20T14:54:48;99722.06;;;22.63;86.38
56604;BME280;42486;47.478;19.036;2022-08-20T14:57:52;99729.66;;;22.73;86.11
56604;BME280;42486;47.478;19.036;2022-08-20T15:00:55;99728.84;;;22.72;85.35
56604;BME280;42486;47.478;19.036;2022-08-20T15:03:58;99752.00;;;22.58;85.65
56604;BME280;42486;47.478;19.036;2022-08-20T15:07:03;99755.88;;;22.76;80.39
56604;BME280;42486;47.478;19.036;2022-08-20T15:10:15;99753.22;;;22.69;81.30
56604;BME280;42486;47.478;19.036;2022-08-20T15:13:18;99760.41;;;22.55;82.01
56604;BME280;42486;47.478;19.036;2022-08-20T15:16:22;99757.94;;;22.20;84.74
56604;BME280;42486;47.478;19.036;2022-08-20T15:19:29;99762.22;;;22.28;85.30
56604;BME280;42486;47.478;19.036;2022-08-20T15:22:33;99767.56;;;22.28;84.37
56604;BME280;42486;47.478;19.036;2022-08-20T15:25:36;99771.44;;;22.26;85.68
56604;BME280;42486;47.478;19.036;2022-08-20T15:28:39;99765.53;;;22.24;86.24
56604;BME280;42486;47.478;19.036;2022-08-20T15:31:42;99757.53;;;22.30;87.91
56604;BME280;42486;47.478;19.036;2022-08-20T15:34:48;99755.69;;;22.24;89.08
56604;BME280;42486;47.478;19.036;2022-08-20T15:37:51;99753.03;;;22.31;87.44
56604;BME280;42486;47.478;19.036;2022-08-20T15:40:55;99753.03;;;22.31;87.44
56604;BME280;42486;47.478;19.036;2022-08-20T15:43:58;99759.34;;;22.16;87.64
56604;BME280;42486;47.478;19.036;2022-08-20T15:47:11;99769.16;;;22.03;89.30
56604;BME280;42486;47.478;19.036;2022-08-20T15:50:26;99762.19;;;22.08;89.23
56604;BME280;42486;47.478;19.036;2022-08-20T15:57:00;99764.44;;;22.18;91.58
56604;BME280;42486;47.478;19.036;2022-08-20T16:06:22;99775.09;;;22.18;94.12
56604;BME280;42486;47.478;19.036;2022-08-20T16:09:34;99773.84;;;22.07;90.70
56604;BME280;42486;47.478;19.036;2022-08-20T16:12:41;99772.44;;;22.11;92.54
56604;BME280;42486;47.478;19.036;2022-08-20T16:15:44;99773.06;;;22.13;92.80
56604;BME280;42486;47.478;19.036;2022-08-20T16:18:50;99772.25;;;22.13;92.54
56604;BME280;42486;47.478;19.036;2022-08-20T16:21:57;99774.47;;;22.09;92.31
56604;BME280;42486;47.478;19.036;2022-08-20T16:25:01;99767.97;;;22.18;91.62
56604;BME280;42486;47.478;19.036;2022-08-20T16:29:07;99766.69;;;22.14;92.34
56604;BME280;42486;47.478;19.036;2022-08-20T16:31:48;99776.50;;;22.07;94.69
56604;BME280;42486;47.478;19.036;2022-08-20T16:35:06;99774.88;;;22.06;94.24
56604;BME280;42486;47.478;19.036;2022-08-20T16:41:50;99784.47;;;22.01;96.93
56604;BME280;42486;47.478;19.036;2022-08-20T16:44:56;99780.37;;;21.98;98.76
56604;BME280;42486;47.478;19.036;2022-08-20T16:48:01;99779.56;;;21.97;100.00
56604;BME280;42486;47.478;19.036;2022-08-20T16:51:16;99784.88;;;21.91;99.54
56604;BME280;42486;47.478;19.036;2022-08-20T16:54:20;99782.78;;;21.80;100.00
56604;BME280;42486;47.478;19.036;2022-08-20T16:57:31;99779.91;;;21.74;100.00
56604;BME280;42486;47.478;19.036;2022-08-20T17:00:35;99781.56;;;21.75;100.00
56604;BME280;42486;47.478;19.036;2022-08-20T17:03:49;99781.94;;;21.72;100.00
56604;BME280;42486;47.478;19.036;2022-08-20T17:06:53;99777.25;;;21.68;100.00
56604;BME280;42486;47.478;19.036;2022-08-20T17:16:20;99784.12;;;21.55;100.00
56604;BME280;42486;47.478;19.036;2022-08-20T17:19:27;99792.09;;;21.49;100.00
56604;BME280;42486;47.478;19.036;2022-08-20T17:22:38;99786.47;;;21.37;100.00
56604;BME280;42486;47.478;19.036;2022-08-20T17:25:41;99767.06;;;21.37;100.00
56604;BME280;42486;47.478;19.036;2022-08-20T17:28:51;99779.94;;;21.33;100.00
56604;BME280;42486;47.478;19.036;2022-08-20T17:32:07;99781.91;;;21.24;100.00
56604;BME280;42486;47.478;19.036;2022-08-20T17:35:11;99775.16;;;21.22;100.00
56604;BME280;42486;47.478;19.036;2022-08-20T17:38:25;99778.59;;;21.16;100.00
56604;BME280;42486;47.478;19.036;2022-08-20T17:41:29;99785.91;;;21.07;100.00